Time;durP1;ratioP1;P1;durP2;ratioP2;P2;SDS_P1;SDS_P2;PMS_P1;PMS_P2;Temp;Humidity;BMP_temperature;BMP_pressure;BME280_temperature;BME280_humidity;BME280_pressure;Samples;Min_cycle;Max_cycle;Signal;HPM_P1;HPM_P2
2023/07/03 00:01:00;;;;;;;19.80;19.00;;;22.50;54.70;;;;;;5012952;28;20529;-66
2023/07/03 00:03:27;;;;;;;20.20;19.20;;;22.60;54.90;;;;;;5013052;28;20442;-66
2023/07/03 00:05:55;;;;;;;20.43;19.53;;;22.60;54.90;;;;;;5004308;28;20474;-65
2023/07/03 00:08:22;;;;;;;20.83;19.70;;;22.60;54.80;;;;;;4993218;28;20446;-66
2023/07/03 00:10:49;;;;;;;21.13;19.90;;;22.60;54.70;;;;;;4993027;28;20538;-65
2023/07/03 00:13:16;;;;;;;21.87;20.83;;;22.60;54.80;;;;;;4993043;28;20578;-65
2023/07/03 00:15:44;;;;;;;21.43;20.10;;;22.60;54.90;;;;;;4992798;28;20542;-66
2023/07/03 00:18:11;;;;;;;22.60;21.50;;;22.50;54.80;;;;;;4999508;28;20526;-66
2023/07/03 00:20:39;;;;;;;20.83;19.73;;;22.40;54.80;;;;;;4973662;28;20707;-65
2023/07/03 00:23:06;;;;;;;21.40;20.40;;;22.40;55.00;;;;;;4973418;28;21022;-66
2023/07/03 00:25:33;;;;;;;20.93;19.73;;;22.40;55.10;;;;;;4973198;28;21066;-65
2023/07/03 00:27:59;;;;;;;20.50;19.40;;;22.30;55.20;;;;;;4973100;28;20990;-65
2023/07/03 00:30:26;;;;;;;21.67;20.40;;;22.30;55.30;;;;;;4990840;28;20481;-65
2023/07/03 00:32:55;;;;;;;20.17;18.83;;;22.30;55.40;;;;;;5012184;28;20524;-65
2023/07/03 00:35:21;;;;;;;21.20;20.00;;;22.30;55.50;;;;;;5012269;28;20461;-64
2023/07/03 00:37:48;;;;;;;21.13;19.83;;;22.30;55.60;;;;;;5012001;28;20446;-65
2023/07/03 00:40:15;;;;;;;21.20;20.03;;;22.30;55.50;;;;;;5012134;28;20485;-65
2023/07/03 00:42:42;;;;;;;21.37;20.40;;;22.20;55.60;;;;;;5010763;28;20529;-64
2023/07/03 00:45:10;;;;;;;20.87;19.87;;;22.20;55.80;;;;;;5011995;28;20529;-64
2023/07/03 00:47:38;;;;;;;22.33;21.20;;;22.20;55.80;;;;;;5011834;28;20875;-63
2023/07/03 00:50:07;;;;;;;21.10;19.80;;;22.20;55.90;;;;;;5006788;28;20454;-64
2023/07/03 00:52:35;;;;;;;20.80;19.70;;;22.20;56.00;;;;;;4992320;28;20573;-64
2023/07/03 00:55:02;;;;;;;21.90;20.60;;;22.20;56.00;;;;;;4992368;28;20457;-64
2023/07/03 00:57:29;;;;;;;22.13;20.70;;;22.20;56.10;;;;;;4992023;28;20502;-64
2023/07/03 00:59:57;;;;;;;20.70;19.50;;;22.20;56.20;;;;;;4995609;28;20541;-64
2023/07/03 01:02:29;;;;;;;19.90;18.90;;;22.10;56.20;;;;;;5011766;28;20525;-64
2023/07/03 01:05:02;;;;;;;19.70;18.40;;;22.10;56.20;;;;;;5011890;28;20537;-64
2023/07/03 01:07:32;;;;;;;19.23;18.30;;;22.10;56.30;;;;;;5026251;23;20578;-64
2023/07/03 01:10:03;;;;;;;20.73;19.53;;;22.10;56.30;;;;;;5011819;28;20447;-63
2023/07/03 01:12:34;;;;;;;19.67;18.77;;;22.10;56.50;;;;;;5019139;28;20476;-64
2023/07/03 01:15:05;;;;;;;20.57;19.47;;;22.10;56.40;;;;;;5031572;28;20540;-63
2023/07/03 01:17:34;;;;;;;22.23;20.97;;;22.10;56.40;;;;;;5014031;28;20557;-64
2023/07/03 01:20:04;;;;;;;19.57;18.50;;;22.10;56.40;;;;;;5011750;28;20528;-64
2023/07/03 01:22:39;;;;;;;20.67;19.83;;;22.10;56.50;;;;;;5011762;28;20478;-63
2023/07/03 01:25:09;;;;;;;20.50;19.40;;;22.00;56.50;;;;;;4999607;28;20537;-63
2023/07/03 01:27:41;;;;;;;20.13;18.93;;;22.00;56.60;;;;;;4992367;28;20511;-62
2023/07/03 01:30:13;;;;;;;21.10;19.90;;;22.00;56.70;;;;;;4996082;28;20504;-65
2023/07/03 01:32:40;;;;;;;20.90;19.77;;;21.90;56.70;;;;;;4996017;28;20933;-64
2023/07/03 01:35:09;;;;;;;20.73;19.70;;;21.90;56.80;;;;;;4996043;28;20501;-63
2023/07/03 01:37:40;;;;;;;21.40;20.10;;;21.90;56.80;;;;;;4995400;28;20477;-65
2023/07/03 01:40:11;;;;;;;20.40;19.40;;;21.80;56.80;;;;;;4996027;28;20470;-65
2023/07/03 01:42:41;;;;;;;20.73;19.73;;;21.80;57.00;;;;;;4995915;28;20446;-65
2023/07/03 01:45:08;;;;;;;20.73;19.60;;;21.80;56.90;;;;;;4995812;28;20460;-65
2023/07/03 01:47:36;;;;;;;20.57;19.47;;;21.70;57.00;;;;;;4995634;28;20554;-65
2023/07/03 01:50:03;;;;;;;20.73;19.63;;;21.70;57.10;;;;;;5000925;28;20451;-65
2023/07/03 01:52:38;;;;;;;21.77;20.47;;;21.80;57.30;;;;;;4995567;28;20536;-65
2023/07/03 01:55:11;;;;;;;22.07;20.77;;;21.80;57.30;;;;;;4995661;28;20533;-65
2023/07/03 01:57:47;;;;;;;20.93;19.57;;;21.80;57.30;;;;;;4995579;28;20541;-65
2023/07/03 02:00:17;;;;;;;20.93;19.13;;;21.80;57.40;;;;;;4996430;28;20533;-65
2023/07/03 02:02:48;;;;;;;21.70;20.47;;;21.70;57.50;;;;;;5015361;28;20496;-65
2023/07/03 02:05:18;;;;;;;22.50;21.00;;;21.70;57.70;;;;;;5014997;28;20536;-65
2023/07/03 02:07:48;;;;;;;22.50;21.13;;;21.80;57.70;;;;;;5013770;28;20577;-65
2023/07/03 02:10:15;;;;;;;20.87;19.87;;;21.80;57.80;;;;;;4975947;28;20807;-65
2023/07/03 02:12:46;;;;;;;22.50;21.20;;;21.70;57.80;;;;;;4975918;28;20909;-65
2023/07/03 02:15:15;;;;;;;22.97;22.03;;;21.70;58.00;;;;;;4975955;28;20542;-65
2023/07/03 02:17:42;;;;;;;20.83;19.43;;;21.70;58.00;;;;;;4975452;28;20502;-62
2023/07/03 02:20:13;;;;;;;21.23;20.10;;;21.70;58.10;;;;;;4996762;28;20447;-64
2023/07/03 02:22:40;;;;;;;22.20;20.80;;;21.60;58.20;;;;;;4995208;28;20447;-63
2023/07/03 02:25:08;;;;;;;24.77;22.83;;;21.70;58.30;;;;;;4995087;28;20458;-64
2023/07/03 02:27:35;;;;;;;21.57;20.40;;;21.60;58.30;;;;;;4994801;28;20557;-65
2023/07/03 02:30:04;;;;;;;20.93;19.73;;;21.60;58.50;;;;;;4994836;28;20474;-64
2023/07/03 02:32:34;;;;;;;21.40;20.37;;;21.60;58.50;;;;;;4995043;28;20573;-64
2023/07/03 02:35:01;;;;;;;21.90;20.23;;;21.60;58.70;;;;;;4995140;28;20533;-64
2023/07/03 02:37:28;;;;;;;22.93;21.43;;;21.60;58.80;;;;;;4994712;28;20490;-64
2023/07/03 02:39:55;;;;;;;22.23;20.70;;;21.60;59.00;;;;;;4994712;28;20532;-64
2023/07/03 02:42:22;;;;;;;21.03;19.83;;;21.60;59.10;;;;;;4994529;28;20539;-63
2023/07/03 02:44:49;;;;;;;21.47;20.23;;;21.60;59.10;;;;;;4994614;28;20566;-64
2023/07/03 02:47:17;;;;;;;20.90;19.60;;;21.50;59.10;;;;;;4994397;28;20471;-63
2023/07/03 02:49:44;;;;;;;22.27;20.97;;;21.60;59.30;;;;;;4994649;28;20797;-64
2023/07/03 02:52:11;;;;;;;19.97;18.97;;;21.60;59.40;;;;;;4994546;28;20521;-63
2023/07/03 02:54:38;;;;;;;20.77;19.60;;;21.50;59.50;;;;;;4994111;28;20530;-65
2023/07/03 02:57:05;;;;;;;21.47;20.20;;;21.50;59.70;;;;;;4994359;28;20555;-65
2023/07/03 02:59:32;;;;;;;19.70;18.70;;;21.50;59.80;;;;;;4994441;28;20534;-63
2023/07/03 03:01:59;;;;;;;21.03;19.63;;;21.50;59.80;;;;;;4994489;28;20533;-63
2023/07/03 03:04:27;;;;;;;22.70;21.30;;;21.40;59.90;;;;;;4994019;28;20513;-65
2023/07/03 03:06:54;;;;;;;20.73;19.73;;;21.50;60.10;;;;;;4994150;28;20561;-64
2023/07/03 03:09:21;;;;;;;20.87;19.67;;;21.50;60.10;;;;;;4994237;28;20534;-63
2023/07/03 03:11:48;;;;;;;20.30;19.10;;;21.50;60.10;;;;;;4994233;28;20945;-64
2023/07/03 03:14:14;;;;;;;21.27;20.17;;;21.50;60.10;;;;;;5011130;28;20541;-64
2023/07/03 03:16:41;;;;;;;21.87;20.57;;;21.50;60.30;;;;;;5013562;28;20549;-64
2023/07/03 03:19:08;;;;;;;22.67;21.07;;;21.40;60.40;;;;;;5013546;28;20485;-61
2023/07/03 03:21:38;;;;;;;21.00;19.90;;;21.40;60.70;;;;;;5013646;28;20533;-64
2023/07/03 03:24:05;;;;;;;22.03;20.70;;;21.40;60.80;;;;;;5013700;28;20856;-64
2023/07/03 03:26:32;;;;;;;21.10;20.07;;;21.50;61.00;;;;;;4995641;28;20558;-64
2023/07/03 03:28:59;;;;;;;21.07;19.93;;;21.40;61.00;;;;;;4993854;28;20534;-64
2023/07/03 03:31:26;;;;;;;22.10;20.70;;;21.40;61.40;;;;;;4993942;28;20533;-64
2023/07/03 03:33:53;;;;;;;22.30;21.10;;;21.40;61.50;;;;;;4993773;28;20586;-64
2023/07/03 03:36:20;;;;;;;22.33;21.00;;;21.40;61.80;;;;;;4993331;28;20502;-64
2023/07/03 03:38:48;;;;;;;21.90;20.80;;;21.40;62.00;;;;;;4993730;28;20450;-64
2023/07/03 03:41:15;;;;;;;22.13;20.97;;;21.40;62.30;;;;;;4993823;28;20483;-64
2023/07/03 03:43:42;;;;;;;22.90;21.30;;;21.40;62.50;;;;;;4993643;28;20486;-65
2023/07/03 03:46:09;;;;;;;20.87;19.80;;;21.40;62.60;;;;;;4993401;28;20549;-63
2023/07/03 03:48:36;;;;;;;27.83;25.43;;;21.40;63.00;;;;;;4993491;28;20443;-65
2023/07/03 03:51:03;;;;;;;22.40;21.00;;;21.30;63.10;;;;;;4993168;28;20450;-65
2023/07/03 03:53:30;;;;;;;22.40;21.23;;;21.30;64.10;;;;;;4993432;28;20482;-65
2023/07/03 03:55:59;;;;;;;21.93;20.33;;;21.40;63.90;;;;;;4993245;28;20909;-64
2023/07/03 03:58:25;;;;;;;20.90;19.90;;;21.30;64.10;;;;;;4993127;28;20518;-64
2023/07/03 04:00:52;;;;;;;23.90;22.60;;;21.30;64.40;;;;;;4993557;28;20459;-65
2023/07/03 04:03:20;;;;;;;24.87;23.00;;;21.30;64.60;;;;;;4993540;28;20959;-65
2023/07/03 04:05:47;;;;;;;24.00;22.80;;;21.30;65.90;;;;;;4993082;28;21379;-64
2023/07/03 04:08:14;;;;;;;23.73;22.63;;;21.30;65.40;;;;;;4992484;28;20530;-65
2023/07/03 04:10:42;;;;;;;24.30;23.00;;;21.30;65.50;;;;;;4993151;28;20534;-64
2023/07/03 04:13:11;;;;;;;24.93;23.43;;;21.30;65.60;;;;;;4993022;28;20475;-65
2023/07/03 04:15:51;;;;;;;25.77;24.47;;;21.30;66.00;;;;;;4993018;28;20530;-65
2023/07/03 04:18:18;;;;;;;25.17;23.67;;;21.30;66.50;;;;;;4992493;28;20455;-65
2023/07/03 04:20:45;;;;;;;26.43;24.83;;;21.30;66.80;;;;;;4992995;28;20538;-64
2023/07/03 04:23:12;;;;;;;26.47;24.97;;;21.30;67.00;;;;;;4993069;28;20443;-64
2023/07/03 04:25:39;;;;;;;24.40;22.90;;;21.30;67.30;;;;;;4992746;28;20896;-64
2023/07/03 04:28:06;;;;;;;26.97;25.00;;;21.30;68.90;;;;;;4973207;28;20478;-64
2023/07/03 04:30:34;;;;;;;25.27;23.40;;;21.30;71.60;;;;;;4973307;28;20872;-65
2023/07/03 04:33:01;;;;;;;25.80;24.03;;;21.20;72.50;;;;;;4973242;28;20570;-66
2023/07/03 04:35:28;;;;;;;24.60;23.30;;;21.30;72.90;;;;;;4997076;28;20488;-65
2023/07/03 04:37:55;;;;;;;27.60;26.03;;;21.30;73.60;;;;;;5001029;28;20486;-65
2023/07/03 04:40:22;;;;;;;26.03;24.33;;;21.30;73.40;;;;;;4992680;28;20486;-65
2023/07/03 04:42:49;;;;;;;25.03;23.83;;;21.30;72.80;;;;;;4992669;28;20485;-66
2023/07/03 04:45:16;;;;;;;25.03;23.63;;;21.30;72.40;;;;;;4992347;28;20455;-65
2023/07/03 04:47:45;;;;;;;27.23;25.67;;;21.30;71.70;;;;;;4992214;28;20505;-65
2023/07/03 04:50:14;;;;;;;25.67;24.17;;;21.40;71.50;;;;;;4992603;28;20811;-66
2023/07/03 04:52:42;;;;;;;25.00;23.57;;;21.40;71.10;;;;;;4992327;28;20550;-64
2023/07/03 04:55:11;;;;;;;26.17;24.57;;;21.40;71.10;;;;;;4992422;28;20558;-65
2023/07/03 04:57:38;;;;;;;25.40;24.27;;;21.50;70.70;;;;;;4992173;28;21049;-65
2023/07/03 05:00:14;;;;;;;25.73;24.23;;;21.50;70.60;;;;;;4992561;28;20450;-65
2023/07/03 05:02:41;;;;;;;25.87;24.13;;;21.50;70.60;;;;;;4991430;28;20509;-65
2023/07/03 05:05:11;;;;;;;24.80;23.40;;;21.50;70.50;;;;;;4992277;28;20533;-65
2023/07/03 05:07:38;;;;;;;24.17;22.93;;;21.50;70.30;;;;;;4991917;28;20946;-64
2023/07/03 05:10:06;;;;;;;24.90;23.40;;;21.50;70.20;;;;;;4992215;28;20486;-65
2023/07/03 05:12:33;;;;;;;24.13;23.03;;;21.50;70.00;;;;;;4992056;28;20529;-65
2023/07/03 05:15:00;;;;;;;25.43;23.60;;;21.50;70.20;;;;;;4992152;28;20538;-65
2023/07/03 05:17:27;;;;;;;24.97;23.70;;;21.60;70.00;;;;;;4991820;28;20513;-65
2023/07/03 05:19:54;;;;;;;25.63;24.13;;;21.50;70.00;;;;;;4992088;28;20684;-65
2023/07/03 05:22:22;;;;;;;25.53;23.70;;;21.60;70.00;;;;;;4992196;28;20525;-65
2023/07/03 05:24:50;;;;;;;25.03;23.60;;;21.50;70.00;;;;;;4992065;28;20439;-65
2023/07/03 05:27:17;;;;;;;25.33;24.03;;;21.50;70.00;;;;;;4991806;28;20470;-65
2023/07/03 05:29:44;;;;;;;23.83;22.73;;;21.50;70.10;;;;;;4991981;28;20554;-65
2023/07/03 05:32:11;;;;;;;24.20;22.70;;;21.50;70.10;;;;;;4991906;28;20880;-65
2023/07/03 05:34:38;;;;;;;26.47;24.70;;;21.50;70.30;;;;;;4991853;28;20482;-65
2023/07/03 05:37:06;;;;;;;24.10;22.93;;;21.50;70.30;;;;;;4991740;28;20477;-64
2023/07/03 05:39:34;;;;;;;24.57;23.10;;;21.60;70.50;;;;;;4991925;28;20873;-65
2023/07/03 05:42:02;;;;;;;24.37;22.93;;;21.60;70.50;;;;;;4991778;28;20454;-64
2023/07/03 05:44:29;;;;;;;27.00;25.40;;;21.60;70.60;;;;;;4991831;28;20849;-65
2023/07/03 05:46:55;;;;;;;24.03;22.70;;;21.60;70.50;;;;;;4991560;28;20859;-65
2023/07/03 05:49:22;;;;;;;24.53;23.13;;;21.60;70.60;;;;;;4991741;28;20521;-64
2023/07/03 05:51:49;;;;;;;25.07;23.97;;;21.60;70.70;;;;;;4991728;28;20506;-65
2023/07/03 05:54:16;;;;;;;24.83;23.03;;;21.60;70.80;;;;;;4991705;28;20573;-65
2023/07/03 05:56:57;;;;;;;24.27;23.23;;;21.60;70.70;;;;;;4991553;28;20474;-65
2023/07/03 05:59:23;;;;;;;26.77;25.27;;;21.60;71.00;;;;;;4992067;28;20453;-65
2023/07/03 06:01:50;;;;;;;25.77;24.40;;;21.60;71.20;;;;;;4991670;28;20537;-65
2023/07/03 06:04:17;;;;;;;25.90;24.77;;;21.60;71.20;;;;;;4991634;28;20538;-65
2023/07/03 06:06:44;;;;;;;26.90;25.20;;;21.60;71.20;;;;;;4991442;28;20561;-65
2023/07/03 06:09:11;;;;;;;26.10;24.37;;;21.60;71.20;;;;;;4991474;28;20485;-65
2023/07/03 06:11:38;;;;;;;26.40;24.93;;;21.60;71.40;;;;;;4991574;28;20940;-65
2023/07/03 06:14:15;;;;;;;26.80;25.20;;;21.60;71.20;;;;;;4992681;28;20572;-65
2023/07/03 06:16:42;;;;;;;26.70;25.07;;;21.60;71.30;;;;;;4995053;28;20474;-65
2023/07/03 06:19:09;;;;;;;27.27;25.50;;;21.60;71.30;;;;;;4995372;28;20551;-66
2023/07/03 06:21:36;;;;;;;27.03;25.60;;;21.60;71.40;;;;;;4995389;28;20479;-65
2023/07/03 06:24:03;;;;;;;25.67;24.10;;;21.60;71.30;;;;;;4995121;28;20530;-65
2023/07/03 06:26:30;;;;;;;25.23;23.73;;;21.60;71.50;;;;;;4994885;28;20895;-65
2023/07/03 06:28:57;;;;;;;23.93;22.73;;;21.60;71.50;;;;;;4995082;28;20485;-66
2023/07/03 06:31:26;;;;;;;24.03;22.30;;;21.60;71.40;;;;;;4994927;28;20538;-64
2023/07/03 06:33:53;;;;;;;24.17;22.87;;;21.60;71.70;;;;;;4994840;28;20569;-64
2023/07/03 06:36:21;;;;;;;25.30;23.83;;;21.60;71.80;;;;;;4994604;28;20525;-65
2023/07/03 06:38:48;;;;;;;24.60;23.43;;;21.60;71.80;;;;;;4994830;28;20458;-65
2023/07/03 06:41:15;;;;;;;25.67;24.40;;;21.60;71.90;;;;;;4994718;28;20934;-64
2023/07/03 06:43:41;;;;;;;25.60;24.13;;;21.60;72.00;;;;;;4994739;28;20530;-65
2023/07/03 06:46:10;;;;;;;24.17;22.97;;;21.60;72.20;;;;;;4994395;28;20501;-65
2023/07/03 06:48:39;;;;;;;23.50;22.23;;;21.60;72.20;;;;;;4994725;28;20910;-64
2023/07/03 06:51:07;;;;;;;23.73;22.50;;;21.60;72.40;;;;;;4994595;28;20478;-64
2023/07/03 06:53:34;;;;;;;24.77;23.37;;;21.60;72.50;;;;;;4994493;28;20574;-64
2023/07/03 06:56:02;;;;;;;23.80;22.60;;;21.60;72.40;;;;;;4994412;28;21087;-64
2023/07/03 06:58:30;;;;;;;25.20;23.70;;;21.60;72.40;;;;;;4994381;28;20958;-64
2023/07/03 07:00:57;;;;;;;25.03;23.57;;;21.60;72.80;;;;;;4994415;28;20530;-64
2023/07/03 07:03:24;;;;;;;26.47;24.87;;;21.60;73.00;;;;;;4994393;28;20537;-65
2023/07/03 07:05:54;;;;;;;24.90;23.60;;;21.60;73.10;;;;;;4994653;28;20517;-65
2023/07/03 07:08:22;;;;;;;26.13;24.60;;;21.60;73.20;;;;;;4994203;28;20451;-64
2023/07/03 07:10:49;;;;;;;26.77;25.07;;;21.60;73.30;;;;;;4994573;28;20458;-64
2023/07/03 07:13:15;;;;;;;25.60;24.30;;;21.60;73.30;;;;;;4994090;28;20550;-64
2023/07/03 07:15:42;;;;;;;25.83;24.53;;;21.60;73.70;;;;;;4994098;28;20542;-64
2023/07/03 07:18:10;;;;;;;25.03;23.50;;;21.60;73.70;;;;;;4993834;28;20545;-66
2023/07/03 07:20:38;;;;;;;26.33;25.00;;;21.60;73.90;;;;;;4994244;28;20530;-66
2023/07/03 07:23:08;;;;;;;27.00;25.53;;;21.60;73.60;;;;;;4994007;28;20450;-66
2023/07/03 07:25:35;;;;;;;25.93;24.73;;;21.60;73.70;;;;;;4993435;28;20474;-65
2023/07/03 07:28:02;;;;;;;25.20;23.80;;;21.60;73.90;;;;;;4993712;28;20485;-67
2023/07/03 07:30:29;;;;;;;24.40;23.00;;;21.60;73.70;;;;;;4993990;28;20667;-66
2023/07/03 07:32:56;;;;;;;26.90;25.27;;;21.60;73.70;;;;;;4993873;28;21010;-66
2023/07/03 07:35:23;;;;;;;25.60;24.10;;;21.60;73.80;;;;;;4993841;28;20483;-66
2023/07/03 07:37:50;;;;;;;24.37;23.07;;;21.60;73.90;;;;;;4993461;28;20565;-65
2023/07/03 07:40:20;;;;;;;25.03;23.27;;;21.60;73.90;;;;;;4993674;28;20984;-65
2023/07/03 07:42:47;;;;;;;23.37;22.37;;;21.60;73.60;;;;;;4993800;28;20490;-65
2023/07/03 07:45:14;;;;;;;25.43;23.70;;;21.70;73.50;;;;;;4993636;28;20482;-64
2023/07/03 07:47:40;;;;;;;25.80;23.90;;;21.70;73.50;;;;;;4993410;28;20549;-66
2023/07/03 07:50:09;;;;;;;25.10;23.80;;;21.70;73.50;;;;;;4993583;28;20573;-65
2023/07/03 07:52:36;;;;;;;25.00;23.53;;;21.70;73.60;;;;;;4993428;28;20478;-65
2023/07/03 07:55:03;;;;;;;23.83;22.83;;;21.60;73.50;;;;;;4993379;28;20567;-64
2023/07/03 07:57:31;;;;;;;24.97;23.57;;;21.60;73.40;;;;;;4993013;28;20499;-64
2023/07/03 07:59:58;;;;;;;25.50;24.20;;;21.70;73.30;;;;;;4993280;28;20501;-64
2023/07/03 08:02:25;;;;;;;25.27;23.80;;;21.70;73.00;;;;;;4993383;28;20522;-64
2023/07/03 08:04:52;;;;;;;24.60;23.50;;;21.70;72.70;;;;;;4993196;28;20524;-64
2023/07/03 08:07:19;;;;;;;24.27;23.00;;;21.70;72.40;;;;;;4992768;28;20510;-64
2023/07/03 08:09:46;;;;;;;24.13;22.83;;;21.70;72.30;;;;;;4993208;28;20525;-63
2023/07/03 08:12:12;;;;;;;24.00;22.80;;;21.70;72.20;;;;;;4992964;28;20538;-64
2023/07/03 08:14:41;;;;;;;23.97;22.77;;;21.70;71.70;;;;;;4992972;28;20574;-64
2023/07/03 08:17:08;;;;;;;24.27;22.63;;;21.70;71.30;;;;;;4992726;28;20502;-64
2023/07/03 08:19:34;;;;;;;25.00;23.80;;;21.70;71.00;;;;;;4993146;28;20451;-63
2023/07/03 08:22:01;;;;;;;25.27;23.70;;;21.70;70.40;;;;;;4992880;28;20479;-64
2023/07/03 08:24:28;;;;;;;25.60;23.90;;;21.70;70.10;;;;;;4992844;28;20485;-64
2023/07/03 08:26:55;;;;;;;24.43;23.07;;;21.70;69.60;;;;;;4992520;28;20542;-63
2023/07/03 08:29:22;;;;;;;23.47;22.30;;;21.70;69.30;;;;;;4992695;28;20533;-64
2023/07/03 08:31:50;;;;;;;23.90;22.50;;;21.70;69.00;;;;;;4992713;28;20529;-65
2023/07/03 08:34:17;;;;;;;24.30;22.80;;;21.70;68.90;;;;;;4992636;28;20942;-65
2023/07/03 08:36:44;;;;;;;24.43;23.33;;;21.70;68.70;;;;;;4992363;28;20491;-65
2023/07/03 08:39:11;;;;;;;25.10;23.43;;;21.70;68.40;;;;;;4992545;28;20525;-65
2023/07/03 08:41:47;;;;;;;23.23;22.23;;;21.70;67.80;;;;;;4992571;28;20489;-65
2023/07/03 08:44:14;;;;;;;24.23;23.03;;;21.70;67.40;;;;;;4992607;28;20858;-65
2023/07/03 08:46:41;;;;;;;23.80;22.50;;;21.70;67.10;;;;;;4992241;28;20510;-65
2023/07/03 08:49:13;;;;;;;24.97;23.30;;;21.70;66.90;;;;;;4992503;28;20533;-66
2023/07/03 08:51:41;;;;;;;24.77;23.60;;;21.70;66.70;;;;;;4992521;28;20485;-65
2023/07/03 08:54:15;;;;;;;26.07;24.17;;;21.70;66.50;;;;;;4992397;28;20574;-65
2023/07/03 08:56:43;;;;;;;24.50;23.20;;;21.70;66.40;;;;;;4992119;28;20897;-66
2023/07/03 08:59:10;;;;;;;24.37;23.10;;;21.70;66.10;;;;;;4992323;28;20534;-65
2023/07/03 09:01:47;;;;;;;24.83;23.63;;;21.70;65.90;;;;;;4992468;28;20898;-65
2023/07/03 09:04:29;;;;;;;24.00;22.80;;;21.70;65.70;;;;;;4992327;28;20529;-64
2023/07/03 09:07:00;;;;;;;24.27;23.03;;;21.70;65.40;;;;;;4992083;28;21037;-64
2023/07/03 09:09:33;;;;;;;24.50;23.30;;;21.70;65.10;;;;;;4992187;28;20927;-65
2023/07/03 09:12:07;;;;;;;24.77;23.50;;;21.80;65.00;;;;;;4992247;28;20703;-64
2023/07/03 09:14:43;;;;;;;25.63;24.23;;;21.80;64.80;;;;;;4992085;28;20569;-66
2023/07/03 09:17:10;;;;;;;23.90;22.70;;;21.80;64.80;;;;;;4992006;28;21247;-66
2023/07/03 09:19:43;;;;;;;24.80;23.53;;;21.70;64.40;;;;;;4992102;28;20478;-66
2023/07/03 09:22:17;;;;;;;23.60;22.40;;;21.70;64.10;;;;;;4992138;28;20660;-64
2023/07/03 09:24:45;;;;;;;24.93;23.63;;;21.70;63.80;;;;;;4992087;28;20690;-64
2023/07/03 09:27:17;;;;;;;24.10;22.70;;;21.70;63.60;;;;;;4991638;28;20562;-65
2023/07/03 09:29:44;;;;;;;22.73;21.67;;;21.80;63.50;;;;;;4992088;28;20450;-66
2023/07/03 09:32:13;;;;;;;24.43;23.33;;;21.70;63.30;;;;;;4991984;28;20479;-65
2023/07/03 09:35:06;;;;;;;23.60;22.60;;;21.70;63.10;;;;;;4991893;28;20573;-65
2023/07/03 09:37:33;;;;;;;25.13;23.83;;;21.70;63.00;;;;;;4991623;28;20459;-63
2023/07/03 09:40:00;;;;;;;24.47;23.23;;;21.70;62.70;;;;;;4991942;28;20486;-65
2023/07/03 09:42:27;;;;;;;24.60;23.30;;;21.70;62.70;;;;;;4991807;28;20527;-66
2023/07/03 09:44:54;;;;;;;23.87;22.80;;;21.70;62.40;;;;;;4991818;28;20533;-64
2023/07/03 09:47:25;;;;;;;24.83;23.50;;;21.70;62.30;;;;;;4991590;28;20554;-65
2023/07/03 09:49:52;;;;;;;24.97;23.67;;;21.70;61.80;;;;;;4994394;28;20474;-65
2023/07/03 09:52:23;;;;;;;24.80;23.23;;;21.70;61.20;;;;;;4995716;28;20530;-65
2023/07/03 09:54:50;;;;;;;23.53;22.40;;;21.70;61.10;;;;;;4995602;28;20514;-65
2023/07/03 09:57:24;;;;;;;23.30;22.20;;;21.70;60.90;;;;;;4995331;28;20466;-65
2023/07/03 09:59:52;;;;;;;23.87;22.67;;;21.70;60.60;;;;;;4995649;28;20795;-66
2023/07/03 10:02:22;;;;;;;25.83;24.17;;;21.70;60.70;;;;;;4995472;28;20875;-66
2023/07/03 10:04:49;;;;;;;23.70;22.50;;;21.80;60.70;;;;;;4995458;28;20533;-66
2023/07/03 10:07:17;;;;;;;23.80;22.43;;;21.80;60.90;;;;;;4995239;28;20565;-66
2023/07/03 10:09:47;;;;;;;23.90;22.67;;;21.80;60.70;;;;;;4995430;28;20533;-66
2023/07/03 10:12:24;;;;;;;24.50;23.17;;;21.70;60.70;;;;;;4995378;28;20818;-66
2023/07/03 10:14:56;;;;;;;24.83;23.30;;;21.80;60.70;;;;;;4995324;28;20513;-65
2023/07/03 10:17:28;;;;;;;23.60;22.50;;;21.80;60.50;;;;;;4995055;28;20812;-64
2023/07/03 10:19:58;;;;;;;23.13;22.10;;;21.80;60.20;;;;;;4995325;28;20887;-65
2023/07/03 10:22:26;;;;;;;23.67;22.57;;;21.80;60.10;;;;;;4995285;28;20830;-65
2023/07/03 10:25:01;;;;;;;23.00;21.80;;;21.80;59.90;;;;;;4995093;28;20469;-66
2023/07/03 10:27:29;;;;;;;23.67;22.57;;;21.80;59.70;;;;;;4994885;28;20470;-65
2023/07/03 10:29:57;;;;;;;23.83;22.70;;;21.80;59.80;;;;;;4995134;28;20446;-65
2023/07/03 10:32:28;;;;;;;24.10;22.80;;;21.70;59.60;;;;;;4995331;28;20447;-65
2023/07/03 10:35:03;;;;;;;23.97;22.87;;;21.80;59.80;;;;;;4995107;28;20485;-66
2023/07/03 10:37:34;;;;;;;24.20;22.93;;;21.80;59.80;;;;;;4994697;28;20573;-64
2023/07/03 10:40:12;;;;;;;26.00;24.60;;;21.80;59.80;;;;;;4995088;28;20541;-64
2023/07/03 10:42:45;;;;;;;23.60;22.50;;;21.80;59.70;;;;;;4994889;28;20505;-64
2023/07/03 10:45:15;;;;;;;24.63;23.50;;;21.80;59.70;;;;;;4994826;28;20470;-65
2023/07/03 10:47:50;;;;;;;24.07;22.90;;;21.80;59.70;;;;;;4994645;28;21016;-64
2023/07/03 10:50:19;;;;;;;22.90;21.77;;;21.80;59.70;;;;;;4994681;28;20529;-64
2023/07/03 10:52:56;;;;;;;23.33;22.30;;;21.80;59.80;;;;;;4994578;28;20479;-64
2023/07/03 10:55:31;;;;;;;23.10;22.00;;;21.80;59.80;;;;;;4994479;28;20524;-65
2023/07/03 10:58:03;;;;;;;24.33;23.00;;;21.80;59.80;;;;;;4994378;28;20533;-65
2023/07/03 11:00:36;;;;;;;23.87;22.70;;;21.80;59.80;;;;;;4993214;28;20530;-66
2023/07/03 11:03:13;;;;;;;24.93;23.70;;;21.80;59.80;;;;;;4994568;28;20534;-66
2023/07/03 11:05:44;;;;;;;22.80;21.77;;;21.80;59.90;;;;;;4994193;28;20536;-66
2023/07/03 11:08:18;;;;;;;23.67;22.67;;;21.80;60.00;;;;;;4994175;28;20493;-66
2023/07/03 11:10:53;;;;;;;22.27;21.13;;;21.80;60.10;;;;;;4994368;28;20478;-66
2023/07/03 11:13:29;;;;;;;23.10;22.00;;;21.80;60.20;;;;;;4994271;28;20926;-66
2023/07/03 11:16:05;;;;;;;23.77;22.67;;;21.80;60.10;;;;;;4994051;28;20504;-65
2023/07/03 11:18:48;;;;;;;23.70;22.70;;;21.90;60.30;;;;;;4994137;28;20486;-65
2023/07/03 11:21:28;;;;;;;24.53;23.23;;;21.80;60.40;;;;;;4994172;28;20447;-64
2023/07/03 11:24:03;;;;;;;23.37;22.07;;;21.90;60.60;;;;;;4994029;28;20538;-65
2023/07/03 11:26:37;;;;;;;24.20;23.03;;;21.90;60.70;;;;;;4993877;28;20554;-64
2023/07/03 11:29:06;;;;;;;24.97;23.37;;;21.90;60.80;;;;;;4994090;28;20447;-64
2023/07/03 11:31:34;;;;;;;23.83;22.30;;;21.90;60.90;;;;;;4993913;28;20527;-65
2023/07/03 11:34:02;;;;;;;24.10;22.90;;;21.90;61.00;;;;;;4993943;28;20653;-65
2023/07/03 11:36:40;;;;;;;26.40;25.07;;;21.90;61.20;;;;;;4993574;28;20565;-65
2023/07/03 11:39:15;;;;;;;23.97;22.77;;;21.90;61.30;;;;;;4993825;28;20541;-65
2023/07/03 11:41:50;;;;;;;23.70;22.63;;;22.00;61.40;;;;;;4993812;28;20848;-67
2023/07/03 11:44:19;;;;;;;24.10;23.10;;;21.90;61.50;;;;;;4993703;28;20447;-66
2023/07/03 11:46:52;;;;;;;23.90;22.70;;;22.00;61.80;;;;;;4993443;28;20573;-66
2023/07/03 11:49:19;;;;;;;23.93;22.93;;;22.00;61.70;;;;;;4993534;28;20447;-65
2023/07/03 11:51:46;;;;;;;24.00;23.00;;;21.90;61.70;;;;;;4993456;28;20946;-65
2023/07/03 11:54:20;;;;;;;23.07;21.83;;;22.00;61.90;;;;;;4993608;28;20533;-65
2023/07/03 11:56:55;;;;;;;24.63;23.53;;;21.90;62.00;;;;;;4993251;28;21089;-64
2023/07/03 11:59:34;;;;;;;23.80;22.70;;;22.00;62.00;;;;;;4993562;28;20529;-64
2023/07/03 12:02:46;;;;;;;24.70;23.30;;;22.00;62.00;;;;;;4993442;28;20861;-64
2023/07/03 12:05:52;;;;;;;22.73;21.73;;;21.90;61.80;;;;;;4993274;28;20446;-64
2023/07/03 12:08:45;;;;;;;23.70;22.60;;;22.00;62.00;;;;;;4993065;28;20445;-63
2023/07/03 12:11:14;;;;;;;23.40;22.40;;;22.00;62.00;;;;;;4992870;28;20482;-63
2023/07/03 12:13:53;;;;;;;23.97;22.90;;;22.00;62.00;;;;;;4993134;28;20449;-65
2023/07/03 12:16:24;;;;;;;23.83;22.83;;;22.00;62.10;;;;;;4992813;28;20490;-65
2023/07/03 12:19:06;;;;;;;23.43;22.30;;;22.00;62.00;;;;;;4993037;28;20881;-65
2023/07/03 12:21:41;;;;;;;23.70;22.60;;;22.10;62.00;;;;;;4992897;28;21020;-64
2023/07/03 12:24:23;;;;;;;24.23;23.03;;;22.10;61.40;;;;;;4993001;28;20537;-65
2023/07/03 12:26:53;;;;;;;26.87;25.43;;;22.10;60.50;;;;;;4992727;28;20494;-65
2023/07/03 12:29:21;;;;;;;24.37;23.07;;;22.10;60.30;;;;;;4992821;28;20935;-65
2023/07/03 12:31:55;;;;;;;25.67;24.30;;;22.10;60.40;;;;;;4992845;28;21021;-65
2023/07/03 12:34:25;;;;;;;24.30;23.10;;;22.10;60.40;;;;;;4992804;28;20454;-65
2023/07/03 12:36:58;;;;;;;23.90;22.73;;;22.10;60.30;;;;;;4992370;28;20867;-64
2023/07/03 12:39:25;;;;;;;23.70;22.53;;;22.10;59.90;;;;;;4992642;28;20534;-64